Missouri River (Missouri), Glasgow (06906500)

StateMissouriLatestUnknown (88000 cfs)
RiverMissouri RiverRatingObservedEstimated
Updated2020-08-14 5:30 (1 hour ago)Flood - The river is flooding. Obstacles can be treacherous or deadly. The river should be avoided at this stage for casual trips and definitely for the inexperienced. Trips should be attempted only with protective gear and equipment.Flood(none)(none)
Discharge88000 cfs (median: 50000 cfs)High - The river is high and potentially dangerous, especially for the young and / or inexperienced. Normal stream obstacles are sometimes difficult to navigate. Extended distances can be attempted, but canoe travel may not be advisable.High(none)(none)
Height17.58 feetGood - Conditions are ideal for a canoe or kayak. Boats typically will drag on fewer than one-quarter of riffles, if at all, and portages are unnecessary or rare. Normal float lengths can be attempted without a problem.Good(none)(none)
TrendSteady (falling over 24 hours)Low - River is low but can still be floated. Some riffles are okay but most come with significant dragging and might need a portage. Float lengths should be reduced to accommodate low flow, dragging, and portages.Low(none)(none)
USGSExternal icon USGS Site (External icon Google Maps)Poor - River is too low to float comfortably. Most or all riffles will drag or must be portaged and some obstacles (such as slick shelf rock) cause undue problems. Avoid the river at this stage for casual paddling trips.Poor(none)(none)

Trending Data

Plot Image

Trips for Missouri River (Missouri), Glasgow (06906500)

DateStartEndDistanceConditionDischargeHeightFishingDetails

A total of 0 rows are displayed.

Condition Descriptions

Fishing Conditions

Fish Species

Notes

Classic Trip List

The classic River Trips application is still available for use. It is updated with the new system using a data retrofit. It is no longer maintained. The original River Trips application is no longer updated (as of 1 Dec 2016) but can be checked for errors or for the condition of the data before it was converted to the new system.

Gauge Data Table

ObservationHeightDischargeMaximum
Discharge
Minimum
Discharge
Mean
Discharge
P05P10P20P25P50
(Median)
P75P80P90P95
2020-08-14 05:30 17.58 88000 197000 (2011) 32900 (2002) 66600 32900 34100 41300 42100 50000 78700 81200 140000 197000
2020-08-14 04:30 17.58 88000 197000 (2011) 32900 (2002) 66600 32900 34100 41300 42100 50000 78700 81200 140000 197000
2020-08-14 03:30 17.56 87800 197000 (2011) 32900 (2002) 66600 32900 34100 41300 42100 50000 78700 81200 140000 197000
2020-08-14 02:30 17.52 87500 197000 (2011) 32900 (2002) 66600 32900 34100 41300 42100 50000 78700 81200 140000 197000
2020-08-14 01:30 17.55 87800 197000 (2011) 32900 (2002) 66600 32900 34100 41300 42100 50000 78700 81200 140000 197000
2020-08-14 00:30 17.56 87800 197000 (2011) 32900 (2002) 66600 32900 34100 41300 42100 50000 78700 81200 140000 197000
2020-08-13 23:30 17.60 88200 199000 (2011) 33600 (2002) 68100 33600 34600 42100 42800 50100 81100 97700 137000 199000
2020-08-13 22:30 17.64 88500 199000 (2011) 33600 (2002) 68100 33600 34600 42100 42800 50100 81100 97700 137000 199000
2020-08-13 21:30 17.64 88500 199000 (2011) 33600 (2002) 68100 33600 34600 42100 42800 50100 81100 97700 137000 199000
2020-08-13 20:30 17.65 88600 199000 (2011) 33600 (2002) 68100 33600 34600 42100 42800 50100 81100 97700 137000 199000
2020-08-13 19:30 17.62 88400 199000 (2011) 33600 (2002) 68100 33600 34600 42100 42800 50100 81100 97700 137000 199000
2020-08-13 18:30 17.61 88300 199000 (2011) 33600 (2002) 68100 33600 34600 42100 42800 50100 81100 97700 137000 199000
2020-08-13 17:30 17.62 88400 199000 (2011) 33600 (2002) 68100 33600 34600 42100 42800 50100 81100 97700 137000 199000
2020-08-13 16:30 17.63 88500 199000 (2011) 33600 (2002) 68100 33600 34600 42100 42800 50100 81100 97700 137000 199000
2020-08-13 15:30 17.67 88800 199000 (2011) 33600 (2002) 68100 33600 34600 42100 42800 50100 81100 97700 137000 199000
2020-08-13 14:30 17.64 88500 199000 (2011) 33600 (2002) 68100 33600 34600 42100 42800 50100 81100 97700 137000 199000
2020-08-13 13:30 17.66 88700 199000 (2011) 33600 (2002) 68100 33600 34600 42100 42800 50100 81100 97700 137000 199000
2020-08-13 12:30 17.69 89000 199000 (2011) 33600 (2002) 68100 33600 34600 42100 42800 50100 81100 97700 137000 199000
2020-08-13 11:30 17.71 89200 199000 (2011) 33600 (2002) 68100 33600 34600 42100 42800 50100 81100 97700 137000 199000
2020-08-13 10:30 17.71 89200 199000 (2011) 33600 (2002) 68100 33600 34600 42100 42800 50100 81100 97700 137000 199000
2020-08-13 09:30 17.70 89100 199000 (2011) 33600 (2002) 68100 33600 34600 42100 42800 50100 81100 97700 137000 199000
2020-08-13 08:30 17.77 89700 199000 (2011) 33600 (2002) 68100 33600 34600 42100 42800 50100 81100 97700 137000 199000
2020-08-13 07:30 17.78 89800 199000 (2011) 33600 (2002) 68100 33600 34600 42100 42800 50100 81100 97700 137000 199000
2020-08-13 06:30 17.80 90000 199000 (2011) 33600 (2002) 68100 33600 34600 42100 42800 50100 81100 97700 137000 199000
2020-08-13 05:30 17.78 89800 199000 (2011) 33600 (2002) 68100 33600 34600 42100 42800 50100 81100 97700 137000 199000
2020-08-13 04:30 17.81 90100 199000 (2011) 33600 (2002) 68100 33600 34600 42100 42800 50100 81100 97700 137000 199000
2020-08-13 03:30 17.79 89900 199000 (2011) 33600 (2002) 68100 33600 34600 42100 42800 50100 81100 97700 137000 199000
2020-08-13 02:30 17.84 90300 199000 (2011) 33600 (2002) 68100 33600 34600 42100 42800 50100 81100 97700 137000 199000
2020-08-13 01:30 17.86 90500 199000 (2011) 33600 (2002) 68100 33600 34600 42100 42800 50100 81100 97700 137000 199000
2020-08-13 00:30 17.89 90700 199000 (2011) 33600 (2002) 68100 33600 34600 42100 42800 50100 81100 97700 137000 199000

A total of 30 rows are displayed for years 2001 through 2019.